createdAt,value
2022-07-31T00:00:24.508Z,18.15
2022-07-31T00:02:51.211Z,18.10
2022-07-31T00:05:18.131Z,18.06
2022-07-31T00:07:44.847Z,18.04
2022-07-31T00:10:11.563Z,17.99
2022-07-31T00:12:38.434Z,18.02
2022-07-31T00:15:07.015Z,18.09
2022-07-31T00:17:34.176Z,18.02
2022-07-31T00:20:00.849Z,17.96
2022-07-31T00:22:27.606Z,17.87
2022-07-31T00:24:54.275Z,17.89
2022-07-31T00:27:21.106Z,17.81
2022-07-31T00:29:47.787Z,17.75
2022-07-31T00:32:14.445Z,17.80
2022-07-31T00:34:42.438Z,17.78
2022-07-31T00:37:10.058Z,17.74
2022-07-31T00:39:36.793Z,17.76
2022-07-31T00:42:03.625Z,17.67
2022-07-31T00:44:30.220Z,17.72
2022-07-31T00:46:58.349Z,17.67
2022-07-31T00:49:25.162Z,17.67
2022-07-31T00:51:51.880Z,17.63
2022-07-31T00:54:22.986Z,17.69
2022-07-31T00:56:50.602Z,17.75
2022-07-31T00:59:24.411Z,17.88
2022-07-31T01:01:51.946Z,17.88
2022-07-31T01:04:19.637Z,17.82
2022-07-31T01:06:46.502Z,17.80
2022-07-31T01:09:16.758Z,17.84
2022-07-31T01:12:15.807Z,17.75
2022-07-31T01:14:56.936Z,17.82
2022-07-31T01:17:25.656Z,17.80
2022-07-31T01:19:53.079Z,17.76
2022-07-31T01:22:53.862Z,17.80
2022-07-31T01:25:49.294Z,17.76
2022-07-31T01:28:37.590Z,17.84
2022-07-31T01:31:27.116Z,17.86
2022-07-31T01:34:33.135Z,17.86
2022-07-31T01:37:17.613Z,17.89
2022-07-31T01:39:50.739Z,17.92
2022-07-31T01:42:20.258Z,17.94
2022-07-31T01:44:53.083Z,17.93
2022-07-31T01:47:21.565Z,18.04
2022-07-31T01:49:53.132Z,18.09
2022-07-31T01:52:20.413Z,18.08
2022-07-31T01:54:48.675Z,18.01
2022-07-31T01:57:18.488Z,17.94
2022-07-31T01:59:46.715Z,17.91
2022-07-31T02:02:15.574Z,17.85
2022-07-31T02:04:47.075Z,17.78
2022-07-31T02:07:15.203Z,17.68
2022-07-31T02:09:58.268Z,17.67
2022-07-31T02:12:32.229Z,17.62
2022-07-31T02:15:02.263Z,17.60
2022-07-31T02:17:29.368Z,17.73
2022-07-31T02:20:00.101Z,17.69
2022-07-31T02:22:27.428Z,17.70
2022-07-31T02:24:54.311Z,17.69
2022-07-31T02:27:57.345Z,17.61
2022-07-31T02:30:10.828Z,17.69
2022-07-31T02:32:39.242Z,17.71
2022-07-31T02:35:07.796Z,17.79
2022-07-31T02:37:37.563Z,17.89
2022-07-31T02:40:05.961Z,17.92
2022-07-31T02:42:32.879Z,17.93
2022-07-31T02:45:01.363Z,17.83
2022-07-31T02:47:29.401Z,17.88
2022-07-31T02:49:58.053Z,17.93
2022-07-31T02:52:26.460Z,17.92
2022-07-31T02:54:53.752Z,17.96
2022-07-31T02:57:20.515Z,18.00
2022-07-31T02:59:47.642Z,18.03
2022-07-31T03:02:14.341Z,18.07
2022-07-31T03:04:40.970Z,18.09
2022-07-31T03:07:08.745Z,18.11
2022-07-31T03:09:36.402Z,18.03
2022-07-31T03:12:04.789Z,18.03
2022-07-31T03:14:34.335Z,18.06
2022-07-31T03:17:02.782Z,18.03
2022-07-31T03:19:30.495Z,18.01
2022-07-31T03:21:57.411Z,17.95
2022-07-31T03:24:25.816Z,17.92
2022-07-31T03:26:52.654Z,17.90
2022-07-31T03:29:39.267Z,17.93
2022-07-31T03:32:06.946Z,17.95
2022-07-31T03:34:33.909Z,17.90
2022-07-31T03:37:00.795Z,17.86
2022-07-31T03:39:27.483Z,17.78
2022-07-31T03:41:56.827Z,17.76
2022-07-31T03:44:24.786Z,17.73
2022-07-31T03:46:52.049Z,17.76
2022-07-31T03:49:19.292Z,17.76
2022-07-31T03:51:46.006Z,17.67
2022-07-31T03:54:12.971Z,17.64
2022-07-31T03:56:45.243Z,17.62
2022-07-31T03:59:13.920Z,17.64
2022-07-31T04:02:07.044Z,17.73
2022-07-31T04:04:28.763Z,17.73
2022-07-31T04:06:55.432Z,17.77
2022-07-31T04:09:22.154Z,17.76
2022-07-31T04:11:49.104Z,17.73
2022-07-31T04:14:15.736Z,17.78
2022-07-31T04:16:42.530Z,17.74
2022-07-31T04:19:09.287Z,17.78
2022-07-31T04:21:36.018Z,17.79
2022-07-31T04:24:02.696Z,17.85
2022-07-31T04:26:29.581Z,17.89
2022-07-31T04:28:56.210Z,17.94
2022-07-31T04:31:23.866Z,18.01
2022-07-31T04:33:55.994Z,18.13
2022-07-31T04:36:30.189Z,18.23
2022-07-31T04:38:58.799Z,18.28
2022-07-31T04:41:25.990Z,18.28
2022-07-31T04:43:52.955Z,18.28
2022-07-31T04:46:20.276Z,18.34
2022-07-31T04:48:47.116Z,18.33
2022-07-31T04:51:20.368Z,18.36
2022-07-31T04:53:47.403Z,18.44
2022-07-31T04:56:33.291Z,18.47
2022-07-31T04:59:01.586Z,18.45
2022-07-31T05:01:28.411Z,18.46
2022-07-31T05:03:55.263Z,18.55
2022-07-31T05:06:22.340Z,18.58
2022-07-31T05:08:48.955Z,18.62
2022-07-31T05:11:24.951Z,18.70
2022-07-31T05:13:57.009Z,18.80
2022-07-31T05:16:24.283Z,18.78
2022-07-31T05:18:54.307Z,18.82
2022-07-31T05:21:21.930Z,18.85
2022-07-31T05:23:49.870Z,18.94
2022-07-31T05:26:18.294Z,18.90
2022-07-31T05:28:46.533Z,18.87
2022-07-31T05:31:13.699Z,18.89
2022-07-31T05:33:40.414Z,18.85
2022-07-31T05:36:07.417Z,18.86
2022-07-31T05:38:34.235Z,18.86
2022-07-31T05:41:01.107Z,18.92
2022-07-31T05:43:27.923Z,18.94
2022-07-31T05:45:54.895Z,18.96
2022-07-31T05:48:21.915Z,19.02
2022-07-31T05:50:49.803Z,18.97
2022-07-31T05:53:16.982Z,19.03
2022-07-31T05:55:45.605Z,19.08
2022-07-31T05:58:16.573Z,19.12
2022-07-31T06:00:46.185Z,19.24
2022-07-31T06:03:13.722Z,19.26
2022-07-31T06:05:41.174Z,19.28
2022-07-31T06:08:09.693Z,19.40
2022-07-31T06:10:37.764Z,19.38
2022-07-31T06:13:05.392Z,19.49
2022-07-31T06:15:36.248Z,19.50
2022-07-31T06:18:04.105Z,19.55
2022-07-31T06:20:31.264Z,19.62
2022-07-31T06:22:58.188Z,19.70
2022-07-31T06:25:24.898Z,19.68
2022-07-31T06:27:59.985Z,19.72
2022-07-31T06:30:27.982Z,19.80
2022-07-31T06:32:54.740Z,19.90
2022-07-31T06:35:21.431Z,20.01
2022-07-31T06:37:48.151Z,20.14
2022-07-31T06:40:14.849Z,20.14
2022-07-31T06:42:42.220Z,20.11
2022-07-31T06:45:09.895Z,19.99
2022-07-31T06:47:36.671Z,19.91
2022-07-31T06:50:04.495Z,19.91
2022-07-31T06:52:31.191Z,19.90
2022-07-31T06:54:58.168Z,19.84
2022-07-31T06:57:24.939Z,19.84
2022-07-31T06:59:51.626Z,19.82
2022-07-31T07:02:18.808Z,19.80
2022-07-31T07:05:04.729Z,19.85
2022-07-31T07:07:34.906Z,19.92
2022-07-31T07:10:01.724Z,19.98
2022-07-31T07:12:28.562Z,20.20
2022-07-31T07:14:55.304Z,20.28
2022-07-31T07:17:25.921Z,20.29
2022-07-31T07:19:55.730Z,20.26
2022-07-31T07:22:30.101Z,20.18
2022-07-31T07:24:59.936Z,20.22
2022-07-31T07:27:26.737Z,20.25
2022-07-31T07:29:53.371Z,20.32
2022-07-31T07:32:20.045Z,20.30
2022-07-31T07:34:46.712Z,20.41
2022-07-31T07:37:13.582Z,20.46
2022-07-31T07:39:40.278Z,20.44
2022-07-31T07:42:07.433Z,20.47
2022-07-31T07:44:34.252Z,20.57
2022-07-31T07:47:00.988Z,20.62
2022-07-31T07:49:27.767Z,20.66
2022-07-31T07:51:59.070Z,20.69
2022-07-31T07:54:36.442Z,20.83
2022-07-31T07:57:03.269Z,21.01
2022-07-31T07:59:29.902Z,20.92
2022-07-31T08:01:56.625Z,20.92
2022-07-31T08:04:23.295Z,20.80
2022-07-31T08:06:49.897Z,20.63
2022-07-31T08:09:16.590Z,20.64
2022-07-31T08:11:43.214Z,20.63
2022-07-31T08:14:10.324Z,20.60
2022-07-31T08:16:42.098Z,20.68
2022-07-31T08:19:08.805Z,20.76
2022-07-31T08:21:35.766Z,20.87
2022-07-31T08:24:02.437Z,20.92
2022-07-31T08:26:52.021Z,21.06
2022-07-31T08:29:18.754Z,21.08
2022-07-31T08:31:54.518Z,21.08
2022-07-31T08:34:31.020Z,21.12
2022-07-31T08:36:59.742Z,21.07
2022-07-31T08:39:48.016Z,21.05
2022-07-31T08:42:15.121Z,21.08
2022-07-31T08:44:43.312Z,21.04
2022-07-31T08:47:13.097Z,21.14
2022-07-31T08:49:49.705Z,21.25
2022-07-31T08:52:24.300Z,21.34
2022-07-31T08:54:52.856Z,21.38
2022-07-31T08:57:20.633Z,21.37
2022-07-31T08:59:49.103Z,21.35
2022-07-31T09:02:15.886Z,21.36
2022-07-31T09:04:42.605Z,21.52
2022-07-31T09:07:11.203Z,21.56
2022-07-31T09:09:45.284Z,21.59
2022-07-31T09:12:33.989Z,21.69
2022-07-31T09:15:00.948Z,21.62
2022-07-31T09:17:35.162Z,21.70
2022-07-31T09:20:02.649Z,21.77
2022-07-31T09:22:30.659Z,21.82
2022-07-31T09:25:19.351Z,21.72
2022-07-31T09:27:48.024Z,21.70
2022-07-31T09:30:15.573Z,21.79
2022-07-31T09:32:43.315Z,21.83
2022-07-31T09:35:12.642Z,21.89
2022-07-31T09:37:40.258Z,22.06
2022-07-31T09:40:09.225Z,22.20
2022-07-31T09:42:48.212Z,22.19
2022-07-31T09:48:04.341Z,22.15
2022-07-31T09:50:31.037Z,22.20
2022-07-31T09:53:00.833Z,22.20
2022-07-31T09:55:27.923Z,22.26
2022-07-31T09:57:59.486Z,22.24
2022-07-31T10:00:27.547Z,22.38
2022-07-31T10:02:56.536Z,22.45
2022-07-31T10:05:25.547Z,22.58
2022-07-31T10:07:56.057Z,22.65
2022-07-31T10:10:23.388Z,22.63
2022-07-31T10:12:54.299Z,22.75
2022-07-31T10:15:23.147Z,22.80
2022-07-31T10:17:51.946Z,22.78
2022-07-31T10:20:22.113Z,22.80
2022-07-31T10:22:53.932Z,22.77
2022-07-31T10:25:31.194Z,22.70
2022-07-31T10:27:58.012Z,22.84
2022-07-31T10:30:28.198Z,22.93
2022-07-31T10:32:57.049Z,22.92
2022-07-31T10:35:23.966Z,22.96
2022-07-31T10:38:01.540Z,23.01
2022-07-31T10:40:42.953Z,23.07
2022-07-31T10:43:27.281Z,23.12
2022-07-31T10:45:55.127Z,22.95
2022-07-31T10:48:22.938Z,22.96
2022-07-31T10:51:04.464Z,23.04
2022-07-31T10:53:34.615Z,23.10
2022-07-31T10:56:18.112Z,23.06
2022-07-31T10:58:53.401Z,22.87
2022-07-31T11:01:20.398Z,22.97
2022-07-31T11:03:49.771Z,23.11
2022-07-31T11:06:17.825Z,23.12
2022-07-31T11:08:49.379Z,23.25
2022-07-31T11:11:16.394Z,23.27
2022-07-31T11:13:55.462Z,23.35
2022-07-31T11:16:22.612Z,23.52
2022-07-31T11:19:01.166Z,23.63
2022-07-31T11:21:40.606Z,23.85
2022-07-31T11:24:18.909Z,23.73
2022-07-31T11:26:52.798Z,23.68
2022-07-31T11:30:01.279Z,23.72
2022-07-31T11:32:25.940Z,23.80
2022-07-31T11:34:59.810Z,24.03
2022-07-31T11:37:41.181Z,24.08
2022-07-31T11:40:16.220Z,23.69
2022-07-31T11:42:46.341Z,23.49
2022-07-31T11:45:16.734Z,23.39
2022-07-31T11:48:11.531Z,23.48
2022-07-31T11:50:42.606Z,23.60
2022-07-31T11:53:09.619Z,23.67
2022-07-31T11:55:50.839Z,23.63
2022-07-31T11:58:20.481Z,23.55
2022-07-31T12:01:07.347Z,23.68
2022-07-31T12:03:36.671Z,23.82
2022-07-31T12:06:05.091Z,23.95
2022-07-31T12:08:32.438Z,24.05
2022-07-31T12:11:01.491Z,24.19
2022-07-31T12:13:28.931Z,24.05
2022-07-31T12:16:08.109Z,24.08
2022-07-31T12:18:52.535Z,23.97
2022-07-31T12:21:20.594Z,23.89
2022-07-31T12:23:52.382Z,23.89
2022-07-31T12:26:37.183Z,23.91
2022-07-31T12:29:06.916Z,23.94
2022-07-31T12:31:54.456Z,24.21
2022-07-31T12:34:42.293Z,24.41
2022-07-31T12:37:12.026Z,24.53
2022-07-31T12:39:59.547Z,24.72
2022-07-31T12:42:40.654Z,24.77
2022-07-31T12:45:17.819Z,24.86
2022-07-31T12:47:51.281Z,24.84
2022-07-31T12:50:20.092Z,24.74
2022-07-31T12:52:46.817Z,24.71
2022-07-31T12:55:13.540Z,24.52
2022-07-31T12:57:51.049Z,24.27
2022-07-31T13:00:20.237Z,24.25
2022-07-31T13:02:47.022Z,24.45
2022-07-31T13:05:13.948Z,24.44
2022-07-31T13:07:40.663Z,24.43
2022-07-31T13:10:19.958Z,24.40
2022-07-31T13:12:51.525Z,24.39
2022-07-31T13:15:20.077Z,24.48
2022-07-31T13:17:50.491Z,24.39
2022-07-31T13:20:17.936Z,24.25
2022-07-31T13:22:44.631Z,24.06
2022-07-31T13:25:11.301Z,23.93
2022-07-31T13:27:38.112Z,23.96
2022-07-31T13:30:05.480Z,24.07
2022-07-31T13:32:32.245Z,24.28
2022-07-31T13:35:27.235Z,24.27
2022-07-31T13:37:46.657Z,24.37
2022-07-31T13:40:13.888Z,24.39
2022-07-31T13:42:40.499Z,24.36
2022-07-31T13:45:08.788Z,24.33
2022-07-31T13:47:50.217Z,24.23
2022-07-31T13:50:18.963Z,24.08
2022-07-31T13:52:45.908Z,23.89
2022-07-31T13:55:12.538Z,23.96
2022-07-31T13:57:39.309Z,23.87
2022-07-31T14:00:07.429Z,23.72
2022-07-31T14:02:34.162Z,23.70
2022-07-31T14:05:00.973Z,23.69
2022-07-31T14:07:48.029Z,23.67
2022-07-31T14:10:19.946Z,23.68
2022-07-31T14:12:48.175Z,23.76
2022-07-31T14:15:15.215Z,23.78
2022-07-31T14:17:41.911Z,23.91
2022-07-31T14:20:09.390Z,23.94
2022-07-31T14:22:36.197Z,23.99
2022-07-31T14:25:03.433Z,24.03
2022-07-31T14:27:30.464Z,23.95
2022-07-31T14:29:57.117Z,23.98
2022-07-31T14:32:25.156Z,23.93
2022-07-31T14:34:52.320Z,23.89
2022-07-31T14:37:20.467Z,23.80
2022-07-31T14:39:47.379Z,23.74
2022-07-31T14:42:14.378Z,23.75
2022-07-31T14:44:42.278Z,23.70
2022-07-31T14:47:11.155Z,23.75
2022-07-31T14:50:09.796Z,23.74
2022-07-31T14:52:25.307Z,23.77
2022-07-31T14:54:53.994Z,23.78
2022-07-31T14:57:22.548Z,23.87
2022-07-31T14:59:50.261Z,23.84
2022-07-31T15:02:21.928Z,23.82
2022-07-31T15:04:49.462Z,23.87
2022-07-31T15:07:34.985Z,23.93
2022-07-31T15:10:07.641Z,23.88
2022-07-31T15:12:34.737Z,23.92
2022-07-31T15:15:01.664Z,23.93
2022-07-31T15:17:28.714Z,23.92
2022-07-31T15:19:55.345Z,23.93
2022-07-31T15:22:22.083Z,23.80
2022-07-31T15:24:50.113Z,23.82
2022-07-31T15:27:24.105Z,23.86
2022-07-31T15:30:04.457Z,23.99
2022-07-31T15:32:33.791Z,24.24
2022-07-31T15:35:00.525Z,24.36
2022-07-31T15:37:27.396Z,24.39
2022-07-31T15:40:02.465Z,24.36
2022-07-31T15:42:37.675Z,24.34
2022-07-31T15:45:04.912Z,24.43
2022-07-31T15:47:31.565Z,24.37
2022-07-31T15:49:58.447Z,24.29
2022-07-31T15:52:25.438Z,24.29
2022-07-31T15:54:52.853Z,24.22
2022-07-31T15:57:23.786Z,24.23
2022-07-31T15:59:51.698Z,24.30
2022-07-31T16:02:18.352Z,24.30
2022-07-31T16:04:53.491Z,24.21
2022-07-31T16:08:30.039Z,24.18
2022-07-31T16:10:17.467Z,24.22
2022-07-31T16:12:46.231Z,24.30
2022-07-31T16:15:13.885Z,24.32
2022-07-31T16:17:41.165Z,24.24
2022-07-31T16:20:25.375Z,24.18
2022-07-31T16:22:58.724Z,24.21
2022-07-31T16:25:26.972Z,24.23
2022-07-31T16:27:54.498Z,24.18
2022-07-31T16:30:22.112Z,24.26
2022-07-31T16:32:49.633Z,24.13
2022-07-31T16:35:16.317Z,24.06
2022-07-31T16:37:51.998Z,23.92
2022-07-31T16:40:28.459Z,23.76
2022-07-31T16:43:50.053Z,23.59
2022-07-31T16:45:53.673Z,23.52
2022-07-31T16:48:20.620Z,23.47
2022-07-31T16:50:48.228Z,23.53
2022-07-31T16:54:12.112Z,23.52
2022-07-31T16:56:07.566Z,23.48
2022-07-31T16:58:34.816Z,23.54
2022-07-31T17:01:03.960Z,23.51
2022-07-31T17:03:59.521Z,23.56
2022-07-31T17:06:17.507Z,23.53
2022-07-31T17:08:44.420Z,23.52
2022-07-31T17:11:11.096Z,23.56
2022-07-31T17:13:37.721Z,23.52
2022-07-31T17:16:05.143Z,23.53
2022-07-31T17:18:31.810Z,23.54
2022-07-31T17:20:59.747Z,23.51
2022-07-31T17:23:42.777Z,23.53
2022-07-31T17:26:21.116Z,23.53
2022-07-31T17:28:52.159Z,23.50
2022-07-31T17:31:19.697Z,23.49
2022-07-31T17:33:59.328Z,23.48
2022-07-31T17:36:28.983Z,23.43
2022-07-31T17:38:56.691Z,23.41
2022-07-31T17:41:25.348Z,23.39
2022-07-31T17:43:54.019Z,23.34
2022-07-31T17:46:28.521Z,23.26
2022-07-31T17:49:06.118Z,23.26
2022-07-31T17:51:33.234Z,23.22
2022-07-31T17:54:00.154Z,23.19
2022-07-31T17:56:27.173Z,23.13
2022-07-31T17:58:55.844Z,23.10
2022-07-31T18:01:28.425Z,23.03
2022-07-31T18:03:55.667Z,23.00
2022-07-31T18:06:22.265Z,22.96
2022-07-31T18:08:48.868Z,22.92
2022-07-31T18:11:15.496Z,22.86
2022-07-31T18:13:48.743Z,22.80
2022-07-31T18:16:18.968Z,22.77
2022-07-31T18:18:46.087Z,22.74
2022-07-31T18:21:13.436Z,22.72
2022-07-31T18:23:47.127Z,22.66
2022-07-31T18:26:14.305Z,22.61
2022-07-31T18:28:41.141Z,22.58
2022-07-31T18:31:13.253Z,22.57
2022-07-31T18:33:54.846Z,22.53
2022-07-31T18:36:21.710Z,22.50
2022-07-31T18:38:48.402Z,22.46
2022-07-31T18:41:15.120Z,22.42
2022-07-31T18:43:41.793Z,22.39
2022-07-31T18:46:08.484Z,22.38
2022-07-31T18:48:35.144Z,22.35
2022-07-31T18:51:05.003Z,22.29
2022-07-31T18:53:32.990Z,22.26
2022-07-31T18:55:59.643Z,22.25
2022-07-31T18:58:26.451Z,22.20
2022-07-31T19:00:55.280Z,22.20
2022-07-31T19:03:23.559Z,22.12
2022-07-31T19:05:52.975Z,22.12
2022-07-31T19:08:20.405Z,22.14
2022-07-31T19:10:49.362Z,22.09
2022-07-31T19:13:19.374Z,22.06
2022-07-31T19:15:47.792Z,22.05
2022-07-31T19:18:15.254Z,22.05
2022-07-31T19:20:59.881Z,22.01
2022-07-31T19:23:33.558Z,21.94
2022-07-31T19:26:03.754Z,21.91
2022-07-31T19:28:34.899Z,21.84
2022-07-31T19:31:01.701Z,21.80
2022-07-31T19:33:28.451Z,21.77
2022-07-31T19:36:00.719Z,21.75
2022-07-31T19:38:29.266Z,21.72
2022-07-31T19:40:56.210Z,21.69
2022-07-31T19:43:23.538Z,21.65
2022-07-31T19:46:09.381Z,21.63
2022-07-31T19:48:37.071Z,21.66
2022-07-31T19:51:04.461Z,21.62
2022-07-31T19:53:31.441Z,21.53
2022-07-31T19:55:58.181Z,21.52
2022-07-31T19:58:24.803Z,21.51
2022-07-31T20:00:51.411Z,21.46
2022-07-31T20:03:18.111Z,21.47
2022-07-31T20:05:44.834Z,21.42
2022-07-31T20:08:11.419Z,21.41
2022-07-31T20:10:38.076Z,21.37
2022-07-31T20:13:04.947Z,21.37
2022-07-31T20:15:52.660Z,21.37
2022-07-31T20:18:27.725Z,21.36
2022-07-31T20:21:04.161Z,21.34
2022-07-31T20:23:36.739Z,21.32
2022-07-31T20:26:03.677Z,21.34
2022-07-31T20:28:30.563Z,21.31
2022-07-31T20:30:57.336Z,21.29
2022-07-31T20:33:24.086Z,21.31
2022-07-31T20:35:50.788Z,21.28
2022-07-31T20:38:22.121Z,21.29
2022-07-31T20:40:53.654Z,21.31
2022-07-31T20:43:26.905Z,21.29
2022-07-31T20:45:57.136Z,21.29
2022-07-31T20:48:27.058Z,21.28
2022-07-31T20:50:53.741Z,21.29
2022-07-31T20:53:21.598Z,21.29
2022-07-31T20:55:50.035Z,21.29
2022-07-31T20:58:21.714Z,21.31
2022-07-31T21:00:49.360Z,21.34
2022-07-31T21:03:17.039Z,21.31
2022-07-31T21:05:45.012Z,21.33
2022-07-31T21:08:12.207Z,21.31
2022-07-31T21:10:39.061Z,21.33
2022-07-31T21:13:05.899Z,21.34
2022-07-31T21:15:41.752Z,21.34
2022-07-31T21:18:16.042Z,21.32
2022-07-31T21:20:49.982Z,21.39
2022-07-31T21:23:23.715Z,21.36
2022-07-31T21:25:54.954Z,21.35
2022-07-31T21:28:22.660Z,21.31
2022-07-31T21:30:49.636Z,21.30
2022-07-31T21:33:18.125Z,21.29
2022-07-31T21:35:45.878Z,21.24
2022-07-31T21:38:15.259Z,21.20
2022-07-31T21:40:42.455Z,21.15
2022-07-31T21:43:09.559Z,21.15
2022-07-31T21:45:51.198Z,21.17
2022-07-31T21:48:25.789Z,21.19
2022-07-31T21:50:53.728Z,21.07
2022-07-31T21:53:20.777Z,21.00
2022-07-31T21:55:47.534Z,21.00
2022-07-31T21:58:14.324Z,21.01
2022-07-31T22:00:41.087Z,21.01
2022-07-31T22:03:07.825Z,20.96
2022-07-31T22:05:53.476Z,20.94
2022-07-31T22:08:20.616Z,20.96
2022-07-31T22:10:50.442Z,20.99
2022-07-31T22:13:17.965Z,20.95
2022-07-31T22:15:56.993Z,20.96
2022-07-31T22:18:31.314Z,20.97
2022-07-31T22:21:00.020Z,20.94
2022-07-31T22:23:27.633Z,20.98
2022-07-31T22:25:55.336Z,20.97
2022-07-31T22:28:23.596Z,20.94
2022-07-31T22:30:50.827Z,21.00
2022-07-31T22:33:17.946Z,21.02
2022-07-31T22:35:44.917Z,21.04
2022-07-31T22:38:26.778Z,21.05
2022-07-31T22:40:53.498Z,21.05
2022-07-31T22:44:11.588Z,21.05
2022-07-31T22:46:07.368Z,21.03
2022-07-31T22:48:34.288Z,21.01
2022-07-31T22:51:01.547Z,20.98
2022-07-31T22:53:28.183Z,20.90
2022-07-31T22:55:55.098Z,20.90
2022-07-31T22:58:22.652Z,20.85
2022-07-31T23:00:49.862Z,20.81
2022-07-31T23:03:17.033Z,20.78
2022-07-31T23:06:12.219Z,20.67
2022-07-31T23:08:30.321Z,20.50
2022-07-31T23:10:56.947Z,20.47
2022-07-31T23:13:23.570Z,20.46
2022-07-31T23:15:50.340Z,20.47
2022-07-31T23:18:16.990Z,20.40
2022-07-31T23:20:43.659Z,20.41
2022-07-31T23:23:10.283Z,20.41
2022-07-31T23:25:36.899Z,20.43
2022-07-31T23:28:03.519Z,20.42
2022-07-31T23:30:30.347Z,20.42
2022-07-31T23:32:56.984Z,20.42
2022-07-31T23:35:23.689Z,20.40
2022-07-31T23:37:50.343Z,20.40
2022-07-31T23:40:16.986Z,20.26
2022-07-31T23:42:43.683Z,20.23
2022-07-31T23:45:12.824Z,20.16
2022-07-31T23:47:44.743Z,20.14
2022-07-31T23:50:12.626Z,20.18
2022-07-31T23:52:39.456Z,20.21
2022-07-31T23:55:06.425Z,20.20
2022-07-31T23:57:34.448Z,20.18
